createdAt,value
2023-08-15T00:02:43.375Z,14.85
2023-08-15T00:05:45.516Z,16.37
2023-08-15T00:08:54.424Z,13.98
2023-08-15T00:11:56.393Z,15.60
2023-08-15T00:14:58.519Z,15.43
2023-08-15T00:18:00.566Z,16.02
2023-08-15T00:21:02.671Z,14.70
2023-08-15T00:24:05.181Z,16.45
2023-08-15T00:27:07.778Z,19.77
2023-08-15T00:30:10.153Z,15.32
2023-08-15T00:33:15.064Z,15.02
2023-08-15T00:36:17.206Z,16.07
2023-08-15T00:39:19.630Z,16.98
2023-08-15T00:42:21.679Z,15.02
2023-08-15T00:45:23.711Z,15.23
2023-08-15T00:48:31.028Z,16.85
2023-08-15T00:51:33.574Z,13.90
2023-08-15T00:54:36.258Z,14.43
2023-08-15T00:57:38.446Z,14.40
2023-08-15T01:00:41.178Z,15.60
2023-08-15T01:03:43.428Z,14.75
2023-08-15T01:06:45.578Z,13.77
2023-08-15T01:09:47.774Z,13.10
2023-08-15T01:12:58.679Z,16.92
2023-08-15T01:16:05.382Z,14.55
2023-08-15T01:19:26.298Z,14.32
2023-08-15T01:22:30.200Z,17.80
2023-08-15T01:25:33.525Z,13.65
2023-08-15T01:28:35.590Z,17.00
2023-08-15T01:31:45.118Z,15.70
2023-08-15T01:34:56.066Z,18.83
2023-08-15T01:38:22.620Z,18.97
2023-08-15T01:41:26.484Z,16.42
2023-08-15T01:44:30.619Z,16.23
2023-08-15T01:47:33.620Z,18.05
2023-08-15T01:50:35.704Z,16.83
2023-08-15T01:53:38.648Z,17.53
2023-08-15T01:56:40.689Z,15.98
2023-08-15T01:59:45.065Z,15.73
2023-08-15T02:02:47.131Z,14.82
2023-08-15T02:05:49.324Z,14.95
2023-08-15T02:08:51.376Z,14.53
2023-08-15T02:11:54.007Z,15.45
2023-08-15T02:14:55.936Z,14.15
2023-08-15T02:17:58.062Z,15.23
2023-08-15T02:21:00.224Z,16.33
2023-08-15T02:24:02.331Z,15.77
2023-08-15T02:27:22.854Z,17.58
2023-08-15T02:30:25.097Z,17.90
2023-08-15T02:33:27.256Z,18.20
2023-08-15T02:36:29.400Z,16.15
2023-08-15T02:39:31.640Z,15.70
2023-08-15T02:42:34.268Z,15.82
2023-08-15T02:45:36.509Z,17.10
2023-08-15T02:48:38.641Z,15.77
2023-08-15T02:51:40.772Z,16.87
2023-08-15T02:54:42.935Z,15.30
2023-08-15T02:57:45.118Z,15.15
2023-08-15T03:00:47.412Z,15.57
2023-08-15T03:03:49.527Z,17.35
2023-08-15T03:06:51.652Z,17.65
2023-08-15T03:09:53.771Z,15.80
2023-08-15T03:12:55.953Z,17.67
2023-08-15T03:15:59.055Z,18.33
2023-08-15T03:19:01.199Z,15.30
2023-08-15T03:22:03.253Z,16.23
2023-08-15T03:25:05.777Z,15.47
2023-08-15T03:28:08.177Z,16.30
2023-08-15T03:31:10.800Z,17.35
2023-08-15T03:34:13.028Z,18.35
2023-08-15T03:37:15.185Z,15.82
2023-08-15T03:40:17.407Z,15.97
2023-08-15T03:43:19.541Z,14.68
2023-08-15T03:46:21.897Z,16.15
2023-08-15T03:49:24.082Z,15.02
2023-08-15T03:52:26.385Z,14.82
2023-08-15T03:55:29.752Z,15.07
2023-08-15T03:58:31.817Z,16.33
2023-08-15T04:01:34.197Z,16.42
2023-08-15T04:04:36.267Z,16.30
2023-08-15T04:07:39.108Z,17.42
2023-08-15T04:10:41.544Z,15.10
2023-08-15T04:13:43.681Z,17.15
2023-08-15T04:16:48.893Z,15.75
2023-08-15T04:19:51.689Z,16.33
2023-08-15T04:22:54.101Z,14.87
2023-08-15T04:25:57.142Z,14.73
2023-08-15T04:28:59.228Z,16.27
2023-08-15T04:32:01.458Z,15.35
2023-08-15T04:35:03.733Z,14.55
2023-08-15T04:38:05.920Z,15.43
2023-08-15T04:41:08.134Z,15.63
2023-08-15T04:44:11.683Z,16.30
2023-08-15T04:47:13.759Z,15.27
2023-08-15T04:50:15.844Z,17.62
2023-08-15T04:53:17.962Z,17.42
2023-08-15T04:56:20.128Z,16.53
2023-08-15T04:59:22.384Z,19.65
2023-08-15T05:02:24.447Z,15.95
2023-08-15T05:05:26.905Z,16.12
2023-08-15T05:08:29.244Z,19.12
2023-08-15T05:11:31.381Z,17.40
2023-08-15T05:14:33.520Z,15.43
2023-08-15T05:17:36.416Z,18.37
2023-08-15T05:20:38.739Z,17.65
2023-08-15T05:23:40.888Z,18.12
2023-08-15T05:26:43.056Z,15.03
2023-08-15T05:29:45.173Z,15.73
2023-08-15T05:32:47.426Z,17.00
2023-08-15T05:35:49.844Z,15.50
2023-08-15T05:38:51.896Z,16.15
2023-08-15T05:41:53.995Z,17.13
2023-08-15T05:44:56.267Z,15.75
2023-08-15T05:47:59.809Z,17.27
2023-08-15T05:51:01.979Z,15.57
2023-08-15T05:54:04.149Z,15.60
2023-08-15T05:57:06.385Z,14.70
2023-08-15T06:00:09.910Z,14.90
2023-08-15T06:03:12.554Z,15.85
2023-08-15T06:06:14.958Z,14.32
2023-08-15T06:09:18.648Z,13.77
2023-08-15T06:12:20.956Z,13.37
2023-08-15T06:15:23.206Z,16.02
2023-08-15T06:18:26.186Z,14.90
2023-08-15T06:21:28.296Z,11.88
2023-08-15T06:24:30.451Z,12.48
2023-08-15T06:27:32.713Z,13.37
2023-08-15T06:30:34.905Z,12.68
2023-08-15T06:33:37.032Z,16.30
2023-08-15T06:36:39.235Z,13.43
2023-08-15T06:39:41.337Z,14.27
2023-08-15T06:42:43.376Z,13.07
2023-08-15T06:45:45.540Z,13.00
2023-08-15T06:48:47.678Z,11.55
2023-08-15T06:51:49.860Z,11.93
2023-08-15T06:54:51.951Z,15.95
2023-08-15T06:57:55.134Z,12.90
2023-08-15T07:00:57.148Z,11.93
2023-08-15T07:03:59.624Z,12.98
2023-08-15T07:07:01.985Z,12.63
2023-08-15T07:10:07.929Z,12.00
2023-08-15T07:13:10.162Z,11.67
2023-08-15T07:16:12.307Z,10.35
2023-08-15T07:19:14.481Z,12.48
2023-08-15T07:22:16.643Z,11.88
2023-08-15T07:25:18.927Z,13.27
2023-08-15T07:28:21.035Z,11.30
2023-08-15T07:31:23.214Z,13.23
2023-08-15T07:34:25.398Z,13.18
2023-08-15T07:37:27.942Z,11.57
2023-08-15T07:40:30.126Z,14.57
2023-08-15T07:43:32.728Z,11.60
2023-08-15T07:46:34.873Z,14.07
2023-08-15T07:49:39.204Z,11.98
2023-08-15T07:52:42.324Z,12.80
2023-08-15T07:55:44.504Z,13.40
2023-08-15T07:58:46.662Z,13.90
2023-08-15T08:01:49.587Z,13.60
2023-08-15T08:04:52.181Z,13.75
2023-08-15T08:07:54.253Z,13.65
2023-08-15T08:10:56.421Z,13.95
2023-08-15T08:13:58.723Z,12.73
2023-08-15T08:17:00.790Z,13.27
2023-08-15T08:20:05.807Z,13.50
2023-08-15T08:23:10.049Z,12.27
2023-08-15T08:26:12.104Z,11.35
2023-08-15T08:29:14.346Z,10.00
2023-08-15T08:32:16.464Z,12.73
2023-08-15T08:35:18.945Z,11.82
2023-08-15T08:38:21.103Z,11.63
2023-08-15T08:41:23.534Z,11.98
2023-08-15T08:44:27.537Z,12.40
2023-08-15T08:47:32.459Z,11.15
2023-08-15T08:50:36.256Z,12.07
2023-08-15T08:53:38.445Z,10.95
2023-08-15T08:56:43.569Z,12.00
2023-08-15T08:59:46.877Z,9.67
2023-08-15T09:02:49.152Z,10.95
2023-08-15T09:05:51.758Z,11.20
2023-08-15T09:08:59.652Z,11.20
2023-08-15T09:12:01.727Z,10.75
2023-08-15T09:15:08.585Z,8.90
2023-08-15T09:18:10.813Z,9.85
2023-08-15T09:21:15.798Z,10.00
2023-08-15T09:24:17.885Z,10.20
2023-08-15T09:27:20.407Z,10.00
2023-08-15T09:30:23.161Z,9.77
2023-08-15T09:33:25.230Z,9.73
2023-08-15T09:36:32.211Z,11.85
2023-08-15T09:39:34.521Z,9.02
2023-08-15T09:42:37.418Z,9.50
2023-08-15T09:45:39.909Z,10.13
2023-08-15T09:48:43.319Z,10.10
2023-08-15T09:51:46.012Z,11.00
2023-08-15T09:54:48.546Z,10.70
2023-08-15T09:57:52.475Z,9.75
2023-08-15T10:00:56.121Z,10.97
2023-08-15T10:04:02.479Z,10.43
2023-08-15T10:07:05.959Z,10.65
2023-08-15T10:10:10.141Z,10.38
2023-08-15T10:13:12.901Z,11.32
2023-08-15T10:16:15.532Z,10.30
2023-08-15T10:19:18.852Z,11.02
2023-08-15T10:22:21.441Z,9.48
2023-08-15T10:25:23.821Z,9.65
2023-08-15T10:28:34.191Z,10.18
2023-08-15T10:31:38.257Z,10.00
2023-08-15T10:34:41.020Z,12.02
2023-08-15T10:37:46.892Z,10.57
2023-08-15T10:40:51.230Z,9.60
2023-08-15T10:43:55.957Z,10.98
2023-08-15T10:46:58.161Z,11.27
2023-08-15T10:50:00.533Z,11.68
2023-08-15T10:53:04.700Z,10.18
2023-08-15T10:56:06.865Z,11.10
2023-08-15T10:59:14.508Z,9.95
2023-08-15T11:02:16.677Z,10.47
2023-08-15T11:05:22.273Z,10.45
2023-08-15T11:08:24.341Z,10.05
2023-08-15T11:11:26.665Z,10.43
2023-08-15T11:14:28.860Z,13.57
2023-08-15T11:17:31.094Z,11.73
2023-08-15T11:20:33.989Z,10.95
2023-08-15T11:23:36.124Z,10.82
2023-08-15T11:26:38.381Z,11.70
2023-08-15T11:29:41.021Z,10.88
2023-08-15T11:32:43.721Z,11.20
2023-08-15T11:35:48.917Z,11.27
2023-08-15T11:38:51.107Z,11.75
2023-08-15T11:41:53.787Z,11.18
2023-08-15T11:45:19.299Z,10.07
2023-08-15T11:48:21.954Z,10.97
2023-08-15T11:51:24.096Z,9.88
2023-08-15T11:54:29.280Z,10.45
2023-08-15T11:57:35.917Z,10.32
2023-08-15T12:00:38.219Z,10.05
2023-08-15T12:03:41.307Z,10.73
2023-08-15T12:06:43.677Z,12.25
2023-08-15T12:09:46.080Z,12.73
2023-08-15T12:12:48.460Z,11.12
2023-08-15T12:15:51.088Z,10.95
2023-08-15T12:18:53.512Z,10.03
2023-08-15T12:21:55.622Z,9.93
2023-08-15T12:24:57.963Z,9.40
2023-08-15T12:28:00.202Z,10.25
2023-08-15T12:31:02.406Z,9.52
2023-08-15T12:34:04.723Z,12.97
2023-08-15T12:37:06.940Z,10.73
2023-08-15T12:40:18.071Z,10.60
2023-08-15T12:43:24.048Z,10.43
2023-08-15T12:46:26.218Z,9.88
2023-08-15T12:49:28.698Z,10.83
2023-08-15T12:52:31.483Z,10.55
2023-08-15T12:55:33.940Z,10.00
2023-08-15T12:58:36.086Z,9.60
2023-08-15T13:01:40.802Z,10.48
2023-08-15T13:04:43.305Z,9.67
2023-08-15T13:07:45.782Z,9.68
2023-08-15T13:10:48.827Z,10.65
2023-08-15T13:13:51.031Z,10.07
2023-08-15T13:16:53.156Z,13.20
2023-08-15T13:19:55.222Z,9.60
2023-08-15T13:22:57.416Z,11.88
2023-08-15T13:25:59.854Z,10.25
2023-08-15T13:29:03.267Z,9.25
2023-08-15T13:32:05.392Z,10.32
2023-08-15T13:35:07.793Z,10.20
2023-08-15T13:38:10.504Z,8.70
2023-08-15T13:41:13.967Z,13.02
2023-08-15T13:44:16.068Z,11.93
2023-08-15T13:47:18.185Z,10.10
2023-08-15T13:50:20.351Z,10.80
2023-08-15T13:53:22.558Z,11.48
2023-08-15T13:56:25.056Z,10.80
2023-08-15T13:59:27.367Z,9.25
2023-08-15T14:02:29.925Z,8.60
2023-08-15T14:05:32.551Z,12.53
2023-08-15T14:08:35.093Z,11.55
2023-08-15T14:11:37.210Z,9.73
2023-08-15T14:14:40.042Z,10.48
2023-08-15T14:17:42.140Z,11.65
2023-08-15T14:20:44.402Z,12.70
2023-08-15T14:23:47.989Z,10.85
2023-08-15T14:26:50.682Z,11.23
2023-08-15T14:29:52.896Z,9.75
2023-08-15T14:32:55.698Z,8.82
2023-08-15T14:35:58.046Z,9.07
2023-08-15T14:39:00.598Z,10.55
2023-08-15T14:42:02.807Z,9.95
2023-08-15T14:45:06.777Z,10.27
2023-08-15T14:48:08.957Z,10.90
2023-08-15T14:51:11.114Z,10.43
2023-08-15T14:54:13.859Z,10.05
2023-08-15T14:57:16.169Z,10.00
2023-08-15T15:00:18.489Z,11.48
2023-08-15T15:03:20.710Z,9.15
2023-08-15T15:06:22.981Z,10.33
2023-08-15T15:09:25.123Z,9.20
2023-08-15T15:12:28.072Z,10.30
2023-08-15T15:15:46.053Z,9.52
2023-08-15T15:18:52.354Z,9.43
2023-08-15T15:21:56.371Z,8.67
2023-08-15T15:24:58.839Z,10.73
2023-08-15T15:28:01.078Z,11.27
2023-08-15T15:31:03.232Z,10.50
2023-08-15T15:34:05.584Z,10.25
2023-08-15T15:37:07.810Z,9.27
2023-08-15T15:40:10.335Z,10.10
2023-08-15T15:43:12.973Z,8.77
2023-08-15T15:46:15.288Z,9.00
2023-08-15T15:49:18.428Z,9.70
2023-08-15T15:52:21.038Z,12.70
2023-08-15T15:55:23.634Z,11.10
2023-08-15T15:58:25.829Z,9.30
2023-08-15T16:01:28.037Z,11.38
2023-08-15T16:04:30.381Z,11.68
2023-08-15T16:07:32.707Z,11.93
2023-08-15T16:10:34.863Z,13.45
2023-08-15T16:13:37.169Z,9.60
2023-08-15T16:16:39.256Z,12.88
2023-08-15T16:19:41.466Z,10.75
2023-08-15T16:22:44.018Z,11.53
2023-08-15T16:25:47.360Z,11.10
2023-08-15T16:28:49.864Z,10.13
2023-08-15T16:31:51.976Z,9.88
2023-08-15T16:34:54.496Z,12.57
2023-08-15T16:37:57.095Z,9.47
2023-08-15T16:40:59.202Z,9.57
2023-08-15T16:44:01.290Z,9.60
2023-08-15T16:47:03.719Z,9.65
2023-08-15T16:50:06.508Z,10.75
2023-08-15T16:53:09.022Z,13.37
2023-08-15T16:56:11.404Z,14.10
2023-08-15T16:59:13.860Z,10.55
2023-08-15T17:02:16.275Z,11.07
2023-08-15T17:05:19.416Z,10.50
2023-08-15T17:08:21.471Z,12.13
2023-08-15T17:11:23.890Z,9.93
2023-08-15T17:14:26.411Z,13.45
2023-08-15T17:17:28.947Z,11.25
2023-08-15T17:20:31.599Z,10.15
2023-08-15T17:23:34.356Z,14.07
2023-08-15T17:26:36.757Z,10.77
2023-08-15T17:29:39.042Z,13.45
2023-08-15T17:32:41.762Z,11.30
2023-08-15T17:35:44.907Z,12.20
2023-08-15T17:38:47.133Z,11.40
2023-08-15T17:41:49.806Z,12.90
2023-08-15T17:44:55.774Z,11.05
2023-08-15T17:47:58.213Z,10.93
2023-08-15T17:51:01.088Z,15.00
2023-08-15T17:54:05.245Z,14.53
2023-08-15T17:57:07.715Z,13.23
2023-08-15T18:00:11.468Z,15.32
2023-08-15T18:03:15.250Z,17.10
2023-08-15T18:06:18.011Z,25.12
2023-08-15T18:09:20.448Z,18.90
2023-08-15T18:12:24.320Z,18.60
2023-08-15T18:15:26.740Z,18.27
2023-08-15T18:18:29.703Z,21.30
2023-08-15T18:21:32.291Z,18.15
2023-08-15T18:24:36.290Z,14.57
2023-08-15T18:27:38.736Z,14.95
2023-08-15T18:30:41.103Z,16.98
2023-08-15T18:33:43.750Z,20.23
2023-08-15T18:36:47.857Z,15.02
2023-08-15T18:39:50.599Z,13.17
2023-08-15T18:42:53.459Z,13.60
2023-08-15T18:45:56.287Z,14.25
2023-08-15T18:48:58.900Z,14.05
2023-08-15T18:52:01.345Z,13.13
2023-08-15T18:55:04.167Z,11.93
2023-08-15T18:58:07.902Z,12.23
2023-08-15T19:01:10.375Z,18.25
2023-08-15T19:04:12.767Z,14.65
2023-08-15T19:07:15.275Z,12.45
2023-08-15T19:10:17.874Z,12.70
2023-08-15T19:13:23.026Z,22.45
2023-08-15T19:16:26.168Z,11.27
2023-08-15T19:19:29.027Z,11.05
2023-08-15T19:22:31.236Z,11.30
2023-08-15T19:25:34.291Z,13.60
2023-08-15T19:28:37.242Z,12.23
2023-08-15T19:31:40.327Z,12.45
2023-08-15T19:34:51.248Z,12.65
2023-08-15T19:37:53.761Z,11.90
2023-08-15T19:40:56.316Z,14.02
2023-08-15T19:44:00.046Z,12.37
2023-08-15T19:47:02.892Z,13.65
2023-08-15T19:50:06.565Z,10.98
2023-08-15T19:53:09.547Z,11.10
2023-08-15T19:56:11.739Z,12.80
2023-08-15T19:59:14.554Z,11.68
2023-08-15T20:02:21.093Z,13.55
2023-08-15T20:05:23.803Z,9.57
2023-08-15T20:08:26.371Z,11.33
2023-08-15T20:11:29.311Z,15.40
2023-08-15T20:14:32.000Z,12.23
2023-08-15T20:17:34.869Z,10.38
2023-08-15T20:20:37.385Z,11.18
2023-08-15T20:23:39.646Z,11.17
2023-08-15T20:26:42.003Z,10.80
2023-08-15T20:29:45.024Z,9.30
2023-08-15T20:32:47.341Z,11.43
2023-08-15T20:35:49.750Z,10.15
2023-08-15T20:38:51.937Z,10.67
2023-08-15T20:41:54.157Z,11.43
2023-08-15T20:44:56.368Z,11.25
2023-08-15T20:47:58.643Z,11.60
2023-08-15T20:51:00.823Z,10.43
2023-08-15T20:54:03.427Z,10.40
2023-08-15T20:57:05.694Z,10.80
2023-08-15T21:00:08.405Z,12.25
2023-08-15T21:03:10.613Z,11.05
2023-08-15T21:06:13.203Z,10.55
2023-08-15T21:09:15.470Z,11.30
2023-08-15T21:12:17.740Z,12.30
2023-08-15T21:15:21.226Z,10.13
2023-08-15T21:18:23.839Z,10.82
2023-08-15T21:21:26.633Z,11.80
2023-08-15T21:24:28.817Z,10.97
2023-08-15T21:27:30.962Z,11.27
2023-08-15T21:30:36.425Z,10.85
2023-08-15T21:33:38.788Z,10.95
2023-08-15T21:36:41.020Z,10.00
2023-08-15T21:39:43.112Z,10.10
2023-08-15T21:42:45.243Z,10.15
2023-08-15T21:45:47.638Z,10.35
2023-08-15T21:48:49.853Z,13.35
2023-08-15T21:51:51.932Z,12.55
2023-08-15T21:54:54.105Z,10.97
2023-08-15T21:57:56.188Z,11.52
2023-08-15T22:00:58.374Z,11.63
2023-08-15T22:04:00.599Z,10.38
2023-08-15T22:07:02.884Z,10.95
2023-08-15T22:10:05.522Z,11.33
2023-08-15T22:13:08.307Z,11.85
2023-08-15T22:16:10.401Z,12.60
2023-08-15T22:19:31.075Z,9.98
2023-08-15T22:22:34.438Z,11.10
2023-08-15T22:25:36.785Z,11.93
2023-08-15T22:28:38.880Z,10.02
2023-08-15T22:31:40.967Z,10.20
2023-08-15T22:34:43.142Z,10.23
2023-08-15T22:37:46.010Z,10.27
2023-08-15T22:40:48.137Z,10.33
2023-08-15T22:43:50.232Z,10.77
2023-08-15T22:46:52.440Z,11.50
2023-08-15T22:49:54.506Z,11.02
2023-08-15T22:52:57.303Z,10.60
2023-08-15T22:56:01.581Z,10.70
2023-08-15T22:59:04.408Z,11.10
2023-08-15T23:02:06.575Z,17.95
2023-08-15T23:05:08.941Z,10.85
2023-08-15T23:08:11.143Z,10.60
2023-08-15T23:11:13.203Z,10.27
2023-08-15T23:14:15.378Z,11.30
2023-08-15T23:17:17.462Z,9.85
2023-08-15T23:20:19.578Z,11.52
2023-08-15T23:23:21.652Z,10.32
2023-08-15T23:26:23.769Z,10.13
2023-08-15T23:29:25.909Z,9.95
2023-08-15T23:32:28.145Z,9.98
2023-08-15T23:35:30.323Z,11.20
2023-08-15T23:38:32.449Z,14.65
2023-08-15T23:41:34.795Z,10.90
2023-08-15T23:44:36.954Z,12.23
2023-08-15T23:47:39.864Z,10.45
2023-08-15T23:50:41.960Z,9.95
2023-08-15T23:53:44.392Z,10.73
2023-08-15T23:56:46.557Z,10.20
2023-08-15T23:59:48.992Z,10.70
